CheckWX is a tool to help pilots better visualize weather data.  It is not intended as a substitute for an official pre-flight weather briefing.

07:00:44 UTC

KNGP METAR
Airport
Corpus Christi, Texas, USA
Current

5 mins ago

KNGP 160656Z AUTO 16018G27KT 10SM CLR 28/23 A2986 RMK AO2 PK WND 16027/0641 SLP111 T02830233 $
Observed
Jun-16 @ 06:56 UTC
Wind
  • 160° at 18 KTS
  • Gusting to 27 KTS
Visibility
10 SM
Flight Rules
VFR
Cloud Levels
  • Clear skies
Temperature
28°C / 82°F
Dewpoint
23°C / 73°F
Heat Index
31°C / 87°F
Humidity
74%
Altimeter
29.86" Hg
Pressure
1011.22 hPa
Previous

1 hour ago

KNGP 160556Z AUTO 16018G25KT 10SM FEW026 28/24 A2988 RMK AO2 PK WND 16027/0504 SLP116 T02830239 10300 20283 403220267 50004 $
Observed
Jun-16 @ 05:56 UTC
Wind
  • 160° at 18 KTS
  • Gusting to 25 KTS
Visibility
10 SM
Flight Rules
VFR
Cloud Levels
  • Few at 2,600' AGL
Temperature
28°C / 82°F
Dewpoint
24°C / 75°F
Heat Index
32°C / 89°F
Humidity
79%
Altimeter
29.88" Hg
Pressure
1011.82 hPa
Previous

2 hours ago

KNGP 160456Z AUTO 16018G24KT 10SM FEW028 SCT033 28/24 A2989 RMK AO2 PK WND 16027/0439 SLP119 T02830239 $
Observed
Jun-16 @ 04:56 UTC
Wind
  • 160° at 18 KTS
  • Gusting to 24 KTS
Visibility
10 SM
Flight Rules
VFR
Cloud Levels
  • Few at 2,800' AGL
  • Scattered at 3,300' AGL
Temperature
28°C / 82°F
Dewpoint
24°C / 75°F
Heat Index
32°C / 89°F
Humidity
79%
Altimeter
29.89" Hg
Pressure
1012.22 hPa